sensor_id;sensor_type;location;lat;lon;timestamp;P1;durP1;ratioP1;P2;durP2;ratioP2
209;SDS011;90;48.810;9.120;2023-03-13T00:00:28;9.60;;;4.30;;
209;SDS011;90;48.810;9.120;2023-03-13T00:02:58;11.97;;;4.80;;
209;SDS011;90;48.810;9.120;2023-03-13T00:05:25;12.07;;;4.50;;
209;SDS011;90;48.810;9.120;2023-03-13T00:07:53;8.13;;;3.97;;
209;SDS011;90;48.810;9.120;2023-03-13T00:10:26;8.60;;;3.80;;
209;SDS011;90;48.810;9.120;2023-03-13T00:12:53;7.47;;;4.40;;
209;SDS011;90;48.810;9.120;2023-03-13T00:15:19;8.10;;;4.47;;
209;SDS011;90;48.810;9.120;2023-03-13T00:17:49;6.60;;;3.97;;
209;SDS011;90;48.810;9.120;2023-03-13T00:20:17;6.50;;;4.07;;
209;SDS011;90;48.810;9.120;2023-03-13T00:22:46;7.77;;;4.20;;
209;SDS011;90;48.810;9.120;2023-03-13T00:25:13;15.93;;;4.60;;
209;SDS011;90;48.810;9.120;2023-03-13T00:27:43;10.63;;;4.30;;
209;SDS011;90;48.810;9.120;2023-03-13T00:30:10;10.80;;;4.27;;
209;SDS011;90;48.810;9.120;2023-03-13T00:32:39;6.20;;;4.33;;
209;SDS011;90;48.810;9.120;2023-03-13T00:35:07;12.47;;;4.90;;
209;SDS011;90;48.810;9.120;2023-03-13T00:37:35;17.60;;;4.80;;
209;SDS011;90;48.810;9.120;2023-03-13T00:40:02;10.00;;;4.67;;
209;SDS011;90;48.810;9.120;2023-03-13T00:42:29;12.60;;;4.30;;
209;SDS011;90;48.810;9.120;2023-03-13T00:44:55;10.03;;;4.47;;
209;SDS011;90;48.810;9.120;2023-03-13T00:47:22;10.30;;;3.67;;
209;SDS011;90;48.810;9.120;2023-03-13T00:49:49;9.20;;;3.93;;
209;SDS011;90;48.810;9.120;2023-03-13T00:52:16;8.80;;;4.50;;
209;SDS011;90;48.810;9.120;2023-03-13T00:54:44;11.50;;;4.50;;
209;SDS011;90;48.810;9.120;2023-03-13T00:57:11;9.70;;;4.27;;
209;SDS011;90;48.810;9.120;2023-03-13T00:59:37;11.70;;;4.50;;
209;SDS011;90;48.810;9.120;2023-03-13T01:02:04;10.90;;;4.63;;
209;SDS011;90;48.810;9.120;2023-03-13T01:04:31;8.23;;;4.57;;
209;SDS011;90;48.810;9.120;2023-03-13T01:06:58;11.83;;;4.37;;
209;SDS011;90;48.810;9.120;2023-03-13T01:09:24;9.47;;;5.60;;
209;SDS011;90;48.810;9.120;2023-03-13T01:11:52;10.10;;;4.23;;
209;SDS011;90;48.810;9.120;2023-03-13T01:14:19;8.87;;;3.97;;
209;SDS011;90;48.810;9.120;2023-03-13T01:16:46;13.93;;;4.67;;
209;SDS011;90;48.810;9.120;2023-03-13T01:19:13;8.83;;;4.40;;
209;SDS011;90;48.810;9.120;2023-03-13T01:21:41;18.33;;;4.93;;
209;SDS011;90;48.810;9.120;2023-03-13T01:24:09;12.43;;;3.93;;
209;SDS011;90;48.810;9.120;2023-03-13T01:26:36;10.97;;;4.07;;
209;SDS011;90;48.810;9.120;2023-03-13T01:29:04;10.87;;;4.27;;
209;SDS011;90;48.810;9.120;2023-03-13T01:31:31;8.80;;;3.70;;
209;SDS011;90;48.810;9.120;2023-03-13T01:34:00;7.30;;;3.70;;
209;SDS011;90;48.810;9.120;2023-03-13T01:36:29;13.80;;;4.20;;
209;SDS011;90;48.810;9.120;2023-03-13T01:38:56;12.67;;;4.47;;
209;SDS011;90;48.810;9.120;2023-03-13T01:41:25;8.83;;;4.17;;
209;SDS011;90;48.810;9.120;2023-03-13T01:43:52;6.10;;;4.20;;
209;SDS011;90;48.810;9.120;2023-03-13T01:46:22;7.80;;;3.60;;
209;SDS011;90;48.810;9.120;2023-03-13T01:48:51;7.03;;;3.70;;
209;SDS011;90;48.810;9.120;2023-03-13T01:51:23;10.90;;;4.73;;
209;SDS011;90;48.810;9.120;2023-03-13T01:53:53;15.00;;;3.70;;
209;SDS011;90;48.810;9.120;2023-03-13T01:56:26;13.30;;;3.87;;
209;SDS011;90;48.810;9.120;2023-03-13T01:58:59;13.13;;;4.80;;
209;SDS011;90;48.810;9.120;2023-03-13T02:01:28;8.40;;;3.70;;
209;SDS011;90;48.810;9.120;2023-03-13T02:03:55;7.13;;;4.57;;
209;SDS011;90;48.810;9.120;2023-03-13T02:06:23;5.23;;;3.67;;
209;SDS011;90;48.810;9.120;2023-03-13T02:08:53;8.57;;;4.30;;
209;SDS011;90;48.810;9.120;2023-03-13T02:11:25;9.20;;;4.00;;
209;SDS011;90;48.810;9.120;2023-03-13T02:13:57;14.30;;;3.80;;
209;SDS011;90;48.810;9.120;2023-03-13T02:16:25;6.23;;;3.70;;
209;SDS011;90;48.810;9.120;2023-03-13T02:18:54;9.67;;;4.30;;
209;SDS011;90;48.810;9.120;2023-03-13T02:21:24;9.27;;;4.37;;
209;SDS011;90;48.810;9.120;2023-03-13T02:24:00;8.30;;;3.90;;
209;SDS011;90;48.810;9.120;2023-03-13T02:26:34;8.57;;;3.60;;
209;SDS011;90;48.810;9.120;2023-03-13T02:29:01;8.57;;;3.60;;
209;SDS011;90;48.810;9.120;2023-03-13T02:31:27;6.53;;;3.77;;
209;SDS011;90;48.810;9.120;2023-03-13T02:33:55;14.57;;;3.90;;
209;SDS011;90;48.810;9.120;2023-03-13T02:36:25;6.80;;;3.73;;
209;SDS011;90;48.810;9.120;2023-03-13T02:38:54;8.20;;;3.27;;
209;SDS011;90;48.810;9.120;2023-03-13T02:41:25;6.40;;;3.40;;
209;SDS011;90;48.810;9.120;2023-03-13T02:43:54;10.63;;;3.47;;
209;SDS011;90;48.810;9.120;2023-03-13T02:46:21;10.07;;;3.27;;
209;SDS011;90;48.810;9.120;2023-03-13T02:48:49;7.67;;;2.90;;
209;SDS011;90;48.810;9.120;2023-03-13T02:51:17;3.80;;;2.40;;
209;SDS011;90;48.810;9.120;2023-03-13T02:53:49;14.70;;;2.70;;
209;SDS011;90;48.810;9.120;2023-03-13T02:56:19;6.27;;;2.60;;
209;SDS011;90;48.810;9.120;2023-03-13T02:58:49;9.27;;;3.47;;
209;SDS011;90;48.810;9.120;2023-03-13T03:01:17;15.77;;;2.73;;
209;SDS011;90;48.810;9.120;2023-03-13T03:03:44;7.20;;;2.90;;
209;SDS011;90;48.810;9.120;2023-03-13T03:06:10;2.87;;;2.00;;
209;SDS011;90;48.810;9.120;2023-03-13T03:08:37;5.30;;;2.40;;
209;SDS011;90;48.810;9.120;2023-03-13T03:11:05;2.83;;;2.40;;
209;SDS011;90;48.810;9.120;2023-03-13T03:13:32;5.63;;;2.60;;
209;SDS011;90;48.810;9.120;2023-03-13T03:16:04;3.47;;;2.30;;
209;SDS011;90;48.810;9.120;2023-03-13T03:18:32;4.80;;;2.20;;
209;SDS011;90;48.810;9.120;2023-03-13T03:20:59;3.70;;;2.20;;
209;SDS011;90;48.810;9.120;2023-03-13T03:23:26;5.40;;;2.13;;
209;SDS011;90;48.810;9.120;2023-03-13T03:25:53;7.57;;;2.30;;
209;SDS011;90;48.810;9.120;2023-03-13T03:28:19;4.50;;;2.47;;
209;SDS011;90;48.810;9.120;2023-03-13T03:30:46;3.90;;;2.37;;
209;SDS011;90;48.810;9.120;2023-03-13T03:33:13;2.83;;;2.20;;
209;SDS011;90;48.810;9.120;2023-03-13T03:35:41;3.00;;;2.03;;
209;SDS011;90;48.810;9.120;2023-03-13T03:38:08;2.63;;;2.47;;
209;SDS011;90;48.810;9.120;2023-03-13T03:40:34;3.10;;;1.90;;
209;SDS011;90;48.810;9.120;2023-03-13T03:43:01;2.63;;;2.40;;
209;SDS011;90;48.810;9.120;2023-03-13T03:45:28;2.40;;;2.23;;
209;SDS011;90;48.810;9.120;2023-03-13T03:47:55;5.67;;;2.20;;
209;SDS011;90;48.810;9.120;2023-03-13T03:50:23;2.67;;;2.03;;
209;SDS011;90;48.810;9.120;2023-03-13T03:52:51;4.47;;;2.10;;
209;SDS011;90;48.810;9.120;2023-03-13T03:55:18;4.70;;;2.00;;
209;SDS011;90;48.810;9.120;2023-03-13T03:57:45;5.43;;;1.87;;
209;SDS011;90;48.810;9.120;2023-03-13T04:00:12;2.70;;;1.90;;
209;SDS011;90;48.810;9.120;2023-03-13T04:02:40;1.90;;;1.70;;
209;SDS011;90;48.810;9.120;2023-03-13T04:05:07;5.30;;;2.53;;
209;SDS011;90;48.810;9.120;2023-03-13T04:07:34;3.33;;;1.83;;
209;SDS011;90;48.810;9.120;2023-03-13T04:10:02;2.13;;;1.73;;
209;SDS011;90;48.810;9.120;2023-03-13T04:12:29;2.97;;;2.07;;
209;SDS011;90;48.810;9.120;2023-03-13T04:14:56;3.70;;;1.70;;
209;SDS011;90;48.810;9.120;2023-03-13T04:17:23;4.37;;;2.07;;
209;SDS011;90;48.810;9.120;2023-03-13T04:19:50;4.10;;;1.77;;
209;SDS011;90;48.810;9.120;2023-03-13T04:22:16;3.13;;;1.70;;
209;SDS011;90;48.810;9.120;2023-03-13T04:24:43;3.20;;;2.10;;
209;SDS011;90;48.810;9.120;2023-03-13T04:27:11;3.58;;;1.70;;
209;SDS011;90;48.810;9.120;2023-03-13T04:29:38;2.30;;;1.83;;
209;SDS011;90;48.810;9.120;2023-03-13T04:32:05;3.40;;;2.13;;
209;SDS011;90;48.810;9.120;2023-03-13T04:34:32;3.13;;;1.83;;
209;SDS011;90;48.810;9.120;2023-03-13T04:36:58;2.13;;;1.67;;
209;SDS011;90;48.810;9.120;2023-03-13T04:39:25;2.10;;;1.70;;
209;SDS011;90;48.810;9.120;2023-03-13T04:41:52;2.60;;;1.67;;
209;SDS011;90;48.810;9.120;2023-03-13T04:44:21;2.83;;;1.47;;
209;SDS011;90;48.810;9.120;2023-03-13T04:46:48;3.70;;;1.60;;
209;SDS011;90;48.810;9.120;2023-03-13T04:49:15;1.87;;;1.60;;
209;SDS011;90;48.810;9.120;2023-03-13T04:51:42;2.00;;;1.50;;
209;SDS011;90;48.810;9.120;2023-03-13T04:54:10;2.20;;;1.70;;
209;SDS011;90;48.810;9.120;2023-03-13T04:56:37;2.10;;;1.40;;
209;SDS011;90;48.810;9.120;2023-03-13T04:59:04;6.27;;;1.50;;
209;SDS011;90;48.810;9.120;2023-03-13T05:01:32;2.07;;;1.53;;
209;SDS011;90;48.810;9.120;2023-03-13T05:03:59;2.00;;;1.50;;
209;SDS011;90;48.810;9.120;2023-03-13T05:06:26;1.90;;;1.40;;
209;SDS011;90;48.810;9.120;2023-03-13T05:08:53;2.83;;;1.60;;
209;SDS011;90;48.810;9.120;2023-03-13T05:11:19;2.23;;;1.50;;
209;SDS011;90;48.810;9.120;2023-03-13T05:13:46;3.80;;;2.00;;
209;SDS011;90;48.810;9.120;2023-03-13T05:16:13;3.10;;;1.60;;
209;SDS011;90;48.810;9.120;2023-03-13T05:18:41;2.43;;;1.80;;
209;SDS011;90;48.810;9.120;2023-03-13T05:21:08;2.30;;;1.70;;
209;SDS011;90;48.810;9.120;2023-03-13T05:23:35;3.30;;;1.63;;
209;SDS011;90;48.810;9.120;2023-03-13T05:26:01;2.13;;;1.63;;
209;SDS011;90;48.810;9.120;2023-03-13T05:28:28;2.70;;;1.50;;
209;SDS011;90;48.810;9.120;2023-03-13T05:30:55;1.83;;;1.60;;
209;SDS011;90;48.810;9.120;2023-03-13T05:33:21;2.10;;;1.50;;
209;SDS011;90;48.810;9.120;2023-03-13T05:35:50;3.30;;;1.37;;
209;SDS011;90;48.810;9.120;2023-03-13T05:38:16;2.20;;;1.50;;
209;SDS011;90;48.810;9.120;2023-03-13T05:40:43;3.50;;;1.40;;
209;SDS011;90;48.810;9.120;2023-03-13T05:43:09;2.80;;;1.30;;
209;SDS011;90;48.810;9.120;2023-03-13T05:45:36;2.73;;;1.40;;
209;SDS011;90;48.810;9.120;2023-03-13T05:48:03;2.30;;;1.50;;
209;SDS011;90;48.810;9.120;2023-03-13T05:50:30;1.90;;;1.37;;
209;SDS011;90;48.810;9.120;2023-03-13T05:52:58;4.00;;;1.73;;
209;SDS011;90;48.810;9.120;2023-03-13T05:55:25;2.33;;;1.70;;
209;SDS011;90;48.810;9.120;2023-03-13T05:57:51;2.30;;;1.77;;
209;SDS011;90;48.810;9.120;2023-03-13T06:00:18;2.20;;;1.50;;
209;SDS011;90;48.810;9.120;2023-03-13T06:02:45;2.00;;;1.50;;
209;SDS011;90;48.810;9.120;2023-03-13T06:05:12;1.90;;;1.40;;
209;SDS011;90;48.810;9.120;2023-03-13T06:07:38;2.30;;;1.60;;
209;SDS011;90;48.810;9.120;2023-03-13T06:10:07;2.00;;;1.50;;
209;SDS011;90;48.810;9.120;2023-03-13T06:12:35;1.90;;;1.40;;
209;SDS011;90;48.810;9.120;2023-03-13T06:15:02;2.27;;;1.70;;
209;SDS011;90;48.810;9.120;2023-03-13T06:17:30;1.70;;;1.33;;
209;SDS011;90;48.810;9.120;2023-03-13T06:19:57;3.00;;;1.40;;
209;SDS011;90;48.810;9.120;2023-03-13T06:22:24;2.37;;;1.43;;
209;SDS011;90;48.810;9.120;2023-03-13T06:24:51;2.13;;;1.40;;
209;SDS011;90;48.810;9.120;2023-03-13T06:27:19;2.30;;;1.50;;
209;SDS011;90;48.810;9.120;2023-03-13T06:29:46;2.67;;;1.40;;
209;SDS011;90;48.810;9.120;2023-03-13T06:32:12;2.50;;;1.30;;
209;SDS011;90;48.810;9.120;2023-03-13T06:34:39;2.93;;;1.50;;
209;SDS011;90;48.810;9.120;2023-03-13T06:37:06;2.57;;;1.30;;
209;SDS011;90;48.810;9.120;2023-03-13T06:39:33;2.53;;;1.50;;
209;SDS011;90;48.810;9.120;2023-03-13T06:41:59;2.23;;;1.43;;
209;SDS011;90;48.810;9.120;2023-03-13T06:44:27;1.87;;;1.43;;
209;SDS011;90;48.810;9.120;2023-03-13T06:46:54;2.20;;;1.20;;
209;SDS011;90;48.810;9.120;2023-03-13T06:49:21;1.80;;;1.40;;
209;SDS011;90;48.810;9.120;2023-03-13T06:51:47;1.83;;;1.20;;
209;SDS011;90;48.810;9.120;2023-03-13T06:54:14;3.63;;;1.80;;
209;SDS011;90;48.810;9.120;2023-03-13T06:56:41;1.80;;;1.30;;
209;SDS011;90;48.810;9.120;2023-03-13T06:59:08;1.73;;;1.33;;
209;SDS011;90;48.810;9.120;2023-03-13T07:01:36;1.80;;;1.27;;
209;SDS011;90;48.810;9.120;2023-03-13T07:04:02;1.90;;;1.33;;
209;SDS011;90;48.810;9.120;2023-03-13T07:06:29;2.20;;;1.50;;
209;SDS011;90;48.810;9.120;2023-03-13T07:08:56;2.03;;;1.47;;
209;SDS011;90;48.810;9.120;2023-03-13T07:11:22;2.00;;;1.40;;
209;SDS011;90;48.810;9.120;2023-03-13T07:13:51;1.90;;;1.70;;
209;SDS011;90;48.810;9.120;2023-03-13T07:16:20;2.10;;;1.30;;
209;SDS011;90;48.810;9.120;2023-03-13T07:18:48;1.70;;;1.27;;
209;SDS011;90;48.810;9.120;2023-03-13T07:21:15;1.80;;;1.20;;
209;SDS011;90;48.810;9.120;2023-03-13T07:23:42;1.80;;;1.70;;
209;SDS011;90;48.810;9.120;2023-03-13T07:26:09;1.70;;;1.20;;
209;SDS011;90;48.810;9.120;2023-03-13T07:28:37;1.80;;;1.40;;
209;SDS011;90;48.810;9.120;2023-03-13T07:31:05;1.80;;;1.40;;
209;SDS011;90;48.810;9.120;2023-03-13T07:33:35;2.00;;;1.37;;
209;SDS011;90;48.810;9.120;2023-03-13T07:36:04;1.80;;;1.30;;
209;SDS011;90;48.810;9.120;2023-03-13T07:38:31;1.90;;;1.50;;
209;SDS011;90;48.810;9.120;2023-03-13T07:40:58;2.63;;;1.40;;
209;SDS011;90;48.810;9.120;2023-03-13T07:43:24;2.67;;;1.40;;
209;SDS011;90;48.810;9.120;2023-03-13T07:45:52;1.90;;;1.47;;
209;SDS011;90;48.810;9.120;2023-03-13T07:48:20;2.63;;;1.30;;
209;SDS011;90;48.810;9.120;2023-03-13T07:50:48;1.97;;;1.20;;
209;SDS011;90;48.810;9.120;2023-03-13T07:53:16;3.20;;;1.70;;
209;SDS011;90;48.810;9.120;2023-03-13T07:55:52;2.53;;;1.50;;
209;SDS011;90;48.810;9.120;2023-03-13T07:58:21;1.70;;;1.20;;
209;SDS011;90;48.810;9.120;2023-03-13T08:00:48;2.67;;;1.57;;
209;SDS011;90;48.810;9.120;2023-03-13T08:03:15;1.80;;;1.30;;
209;SDS011;90;48.810;9.120;2023-03-13T08:05:42;3.33;;;1.60;;
209;SDS011;90;48.810;9.120;2023-03-13T08:08:09;1.80;;;1.60;;
209;SDS011;90;48.810;9.120;2023-03-13T08:10:38;3.50;;;1.40;;
209;SDS011;90;48.810;9.120;2023-03-13T08:13:04;9.00;;;1.70;;
209;SDS011;90;48.810;9.120;2023-03-13T08:15:31;2.20;;;1.53;;
209;SDS011;90;48.810;9.120;2023-03-13T08:17:58;6.57;;;1.43;;
209;SDS011;90;48.810;9.120;2023-03-13T08:20:25;1.83;;;1.47;;
209;SDS011;90;48.810;9.120;2023-03-13T08:23:32;1.87;;;1.50;;
209;SDS011;90;48.810;9.120;2023-03-13T08:25:48;5.43;;;1.90;;
209;SDS011;90;48.810;9.120;2023-03-13T08:28:14;6.70;;;1.70;;
209;SDS011;90;48.810;9.120;2023-03-13T08:30:41;3.43;;;1.73;;
209;SDS011;90;48.810;9.120;2023-03-13T08:33:08;2.93;;;1.60;;
209;SDS011;90;48.810;9.120;2023-03-13T08:35:35;2.40;;;1.67;;
209;SDS011;90;48.810;9.120;2023-03-13T08:38:01;3.20;;;1.90;;
209;SDS011;90;48.810;9.120;2023-03-13T08:40:28;2.57;;;2.00;;
209;SDS011;90;48.810;9.120;2023-03-13T08:42:56;3.73;;;1.90;;
209;SDS011;90;48.810;9.120;2023-03-13T08:45:23;3.70;;;2.23;;
209;SDS011;90;48.810;9.120;2023-03-13T08:47:51;4.07;;;2.07;;
209;SDS011;90;48.810;9.120;2023-03-13T08:50:18;1.83;;;1.37;;
209;SDS011;90;48.810;9.120;2023-03-13T08:52:45;2.73;;;2.43;;
209;SDS011;90;48.810;9.120;2023-03-13T08:55:12;2.87;;;2.07;;
209;SDS011;90;48.810;9.120;2023-03-13T08:57:39;2.83;;;2.00;;
209;SDS011;90;48.810;9.120;2023-03-13T09:00:08;2.40;;;2.00;;
209;SDS011;90;48.810;9.120;2023-03-13T09:02:37;5.50;;;1.70;;
209;SDS011;90;48.810;9.120;2023-03-13T09:05:04;4.00;;;2.50;;
209;SDS011;90;48.810;9.120;2023-03-13T09:07:31;2.50;;;1.97;;
209;SDS011;90;48.810;9.120;2023-03-13T09:09:58;2.50;;;2.30;;
209;SDS011;90;48.810;9.120;2023-03-13T09:12:25;2.23;;;1.63;;
209;SDS011;90;48.810;9.120;2023-03-13T09:14:52;2.57;;;1.50;;
209;SDS011;90;48.810;9.120;2023-03-13T09:17:20;3.10;;;1.70;;
209;SDS011;90;48.810;9.120;2023-03-13T09:19:47;2.07;;;1.70;;
209;SDS011;90;48.810;9.120;2023-03-13T09:22:14;2.73;;;1.80;;
209;SDS011;90;48.810;9.120;2023-03-13T09:24:41;2.30;;;1.70;;
209;SDS011;90;48.810;9.120;2023-03-13T09:27:08;3.80;;;2.20;;
209;SDS011;90;48.810;9.120;2023-03-13T09:29:35;4.50;;;1.90;;
209;SDS011;90;48.810;9.120;2023-03-13T09:32:05;2.30;;;2.13;;
209;SDS011;90;48.810;9.120;2023-03-13T09:34:34;3.30;;;2.10;;
209;SDS011;90;48.810;9.120;2023-03-13T09:37:04;3.50;;;1.93;;
209;SDS011;90;48.810;9.120;2023-03-13T09:39:31;4.60;;;1.83;;
209;SDS011;90;48.810;9.120;2023-03-13T09:42:00;2.40;;;2.30;;
209;SDS011;90;48.810;9.120;2023-03-13T09:44:35;2.93;;;2.30;;
209;SDS011;90;48.810;9.120;2023-03-13T09:47:06;4.20;;;2.03;;
209;SDS011;90;48.810;9.120;2023-03-13T09:49:40;3.40;;;2.17;;
209;SDS011;90;48.810;9.120;2023-03-13T09:52:12;2.67;;;2.47;;
209;SDS011;90;48.810;9.120;2023-03-13T09:54:42;4.53;;;2.57;;
209;SDS011;90;48.810;9.120;2023-03-13T09:57:14;5.10;;;2.20;;
209;SDS011;90;48.810;9.120;2023-03-13T09:59:46;7.83;;;2.70;;
209;SDS011;90;48.810;9.120;2023-03-13T10:02:23;3.00;;;2.30;;
209;SDS011;90;48.810;9.120;2023-03-13T10:04:56;3.30;;;2.13;;
209;SDS011;90;48.810;9.120;2023-03-13T10:07:31;3.20;;;2.20;;
209;SDS011;90;48.810;9.120;2023-03-13T10:09:58;3.37;;;2.40;;
209;SDS011;90;48.810;9.120;2023-03-13T10:12:26;3.60;;;2.40;;
209;SDS011;90;48.810;9.120;2023-03-13T10:14:59;6.17;;;2.67;;
209;SDS011;90;48.810;9.120;2023-03-13T10:17:42;2.73;;;2.53;;
209;SDS011;90;48.810;9.120;2023-03-13T10:20:16;7.13;;;2.60;;
209;SDS011;90;48.810;9.120;2023-03-13T10:22:49;3.73;;;2.63;;
209;SDS011;90;48.810;9.120;2023-03-13T10:25:23;4.43;;;2.67;;
209;SDS011;90;48.810;9.120;2023-03-13T10:27:54;2.63;;;2.40;;
209;SDS011;90;48.810;9.120;2023-03-13T10:30:28;4.73;;;2.33;;
209;SDS011;90;48.810;9.120;2023-03-13T10:32:58;3.00;;;2.20;;
209;SDS011;90;48.810;9.120;2023-03-13T10:35:31;4.22;;;2.60;;
209;SDS011;90;48.810;9.120;2023-03-13T10:38:02;3.63;;;2.40;;
209;SDS011;90;48.810;9.120;2023-03-13T10:40:32;3.97;;;2.43;;
209;SDS011;90;48.810;9.120;2023-03-13T10:42:59;3.70;;;3.50;;
209;SDS011;90;48.810;9.120;2023-03-13T10:45:30;3.63;;;2.87;;
209;SDS011;90;48.810;9.120;2023-03-13T10:47:59;4.67;;;3.17;;
209;SDS011;90;48.810;9.120;2023-03-13T10:50:33;4.43;;;2.70;;
209;SDS011;90;48.810;9.120;2023-03-13T10:53:09;3.33;;;3.07;;
209;SDS011;90;48.810;9.120;2023-03-13T10:55:48;3.47;;;3.30;;
209;SDS011;90;48.810;9.120;2023-03-13T10:58:17;3.40;;;2.83;;
209;SDS011;90;48.810;9.120;2023-03-13T11:00:49;3.03;;;2.50;;
209;SDS011;90;48.810;9.120;2023-03-13T11:03:31;4.10;;;3.20;;
209;SDS011;90;48.810;9.120;2023-03-13T11:06:23;6.27;;;2.97;;
209;SDS011;90;48.810;9.120;2023-03-13T11:08:57;3.03;;;2.90;;
209;SDS011;90;48.810;9.120;2023-03-13T11:11:27;6.10;;;3.43;;
209;SDS011;90;48.810;9.120;2023-03-13T11:14:08;3.90;;;3.00;;
209;SDS011;90;48.810;9.120;2023-03-13T11:16:45;3.23;;;3.10;;
209;SDS011;90;48.810;9.120;2023-03-13T11:22:24;3.73;;;3.53;;
209;SDS011;90;48.810;9.120;2023-03-13T11:25:01;3.40;;;3.20;;
209;SDS011;90;48.810;9.120;2023-03-13T11:27:44;5.20;;;3.13;;
209;SDS011;90;48.810;9.120;2023-03-13T11:30:26;4.30;;;2.90;;
209;SDS011;90;48.810;9.120;2023-03-13T11:33:09;2.90;;;2.60;;
209;SDS011;90;48.810;9.120;2023-03-13T11:35:44;3.63;;;3.43;;
209;SDS011;90;48.810;9.120;2023-03-13T11:38:23;4.20;;;3.33;;
209;SDS011;90;48.810;9.120;2023-03-13T11:40:56;5.82;;;3.20;;
209;SDS011;90;48.810;9.120;2023-03-13T11:43:41;4.00;;;2.70;;
209;SDS011;90;48.810;9.120;2023-03-13T11:46:21;3.60;;;3.40;;
209;SDS011;90;48.810;9.120;2023-03-13T11:49:25;4.57;;;3.10;;
209;SDS011;90;48.810;9.120;2023-03-13T11:52:08;3.07;;;2.87;;
209;SDS011;90;48.810;9.120;2023-03-13T11:54:57;3.90;;;3.23;;
209;SDS011;90;48.810;9.120;2023-03-13T11:57:39;3.70;;;3.07;;
209;SDS011;90;48.810;9.120;2023-03-13T12:00:21;4.70;;;3.07;;
209;SDS011;90;48.810;9.120;2023-03-13T12:02:56;4.40;;;3.40;;
209;SDS011;90;48.810;9.120;2023-03-13T12:05:29;2.83;;;2.73;;
209;SDS011;90;48.810;9.120;2023-03-13T12:08:04;3.63;;;3.43;;
209;SDS011;90;48.810;9.120;2023-03-13T12:10:37;3.40;;;3.20;;
209;SDS011;90;48.810;9.120;2023-03-13T12:13:11;6.00;;;3.20;;
209;SDS011;90;48.810;9.120;2023-03-13T12:15:49;3.10;;;2.60;;
209;SDS011;90;48.810;9.120;2023-03-13T12:18:21;2.90;;;2.70;;
209;SDS011;90;48.810;9.120;2023-03-13T12:20:55;4.60;;;3.13;;
209;SDS011;90;48.810;9.120;2023-03-13T12:23:35;6.43;;;3.10;;
209;SDS011;90;48.810;9.120;2023-03-13T12:26:17;3.57;;;3.10;;
209;SDS011;90;48.810;9.120;2023-03-13T12:28:47;3.40;;;3.10;;
209;SDS011;90;48.810;9.120;2023-03-13T12:31:28;4.10;;;3.60;;
209;SDS011;90;48.810;9.120;2023-03-13T12:34:01;2.73;;;2.57;;
209;SDS011;90;48.810;9.120;2023-03-13T12:36:34;2.90;;;2.43;;
209;SDS011;90;48.810;9.120;2023-03-13T12:39:09;3.50;;;3.30;;
209;SDS011;90;48.810;9.120;2023-03-13T12:41:47;4.20;;;3.40;;
209;SDS011;90;48.810;9.120;2023-03-13T12:44:19;4.33;;;2.90;;
209;SDS011;90;48.810;9.120;2023-03-13T12:46:51;3.37;;;2.93;;
209;SDS011;90;48.810;9.120;2023-03-13T12:49:44;3.80;;;2.63;;
209;SDS011;90;48.810;9.120;2023-03-13T12:52:43;5.80;;;3.23;;
209;SDS011;90;48.810;9.120;2023-03-13T12:55:23;2.93;;;2.63;;
209;SDS011;90;48.810;9.120;2023-03-13T12:58:10;3.37;;;3.17;;
209;SDS011;90;48.810;9.120;2023-03-13T13:00:44;3.40;;;3.20;;
209;SDS011;90;48.810;9.120;2023-03-13T13:03:22;3.60;;;3.40;;
209;SDS011;90;48.810;9.120;2023-03-13T13:05:58;4.93;;;2.90;;
209;SDS011;90;48.810;9.120;2023-03-13T13:08:30;6.00;;;3.23;;
209;SDS011;90;48.810;9.120;2023-03-13T13:14:31;4.43;;;2.93;;
209;SDS011;90;48.810;9.120;2023-03-13T13:17:18;6.00;;;2.90;;
209;SDS011;90;48.810;9.120;2023-03-13T13:19:50;3.13;;;2.37;;
209;SDS011;90;48.810;9.120;2023-03-13T13:27:53;2.87;;;2.50;;
209;SDS011;90;48.810;9.120;2023-03-13T13:30:31;3.27;;;2.80;;
209;SDS011;90;48.810;9.120;2023-03-13T13:38:52;4.50;;;2.97;;
209;SDS011;90;48.810;9.120;2023-03-13T13:41:24;4.73;;;2.67;;
209;SDS011;90;48.810;9.120;2023-03-13T13:46:50;7.00;;;3.23;;
209;SDS011;90;48.810;9.120;2023-03-13T13:49:18;10.53;;;3.10;;
209;SDS011;90;48.810;9.120;2023-03-13T13:58:00;3.13;;;2.40;;
209;SDS011;90;48.810;9.120;2023-03-13T14:00:33;5.13;;;3.00;;
209;SDS011;90;48.810;9.120;2023-03-13T14:03:15;4.70;;;2.13;;
209;SDS011;90;48.810;9.120;2023-03-13T14:05:47;2.77;;;2.40;;
209;SDS011;90;48.810;9.120;2023-03-13T14:08:18;2.90;;;2.70;;
209;SDS011;90;48.810;9.120;2023-03-13T14:10:50;2.77;;;2.50;;
209;SDS011;90;48.810;9.120;2023-03-13T14:13:20;4.47;;;2.57;;
209;SDS011;90;48.810;9.120;2023-03-13T14:15:48;6.10;;;2.50;;
209;SDS011;90;48.810;9.120;2023-03-13T14:18:22;5.50;;;3.00;;
209;SDS011;90;48.810;9.120;2023-03-13T14:20:51;3.73;;;2.40;;
209;SDS011;90;48.810;9.120;2023-03-13T14:23:31;3.30;;;2.77;;
209;SDS011;90;48.810;9.120;2023-03-13T14:26:13;2.80;;;2.60;;
209;SDS011;90;48.810;9.120;2023-03-13T14:28:43;3.50;;;2.40;;
209;SDS011;90;48.810;9.120;2023-03-13T14:31:20;3.80;;;2.90;;
209;SDS011;90;48.810;9.120;2023-03-13T14:33:49;3.00;;;2.80;;
209;SDS011;90;48.810;9.120;2023-03-13T14:36:17;7.20;;;2.90;;
209;SDS011;90;48.810;9.120;2023-03-13T14:38:50;3.30;;;2.40;;
209;SDS011;90;48.810;9.120;2023-03-13T14:41:22;4.10;;;2.90;;
209;SDS011;90;48.810;9.120;2023-03-13T14:43:53;5.30;;;2.83;;
209;SDS011;90;48.810;9.120;2023-03-13T14:46:28;3.20;;;3.00;;
209;SDS011;90;48.810;9.120;2023-03-13T14:48:59;3.33;;;2.80;;
209;SDS011;90;48.810;9.120;2023-03-13T14:51:31;4.20;;;2.93;;
209;SDS011;90;48.810;9.120;2023-03-13T14:54:03;4.18;;;2.03;;
209;SDS011;90;48.810;9.120;2023-03-13T14:56:31;5.30;;;2.73;;
209;SDS011;90;48.810;9.120;2023-03-13T14:59:07;2.90;;;2.70;;
209;SDS011;90;48.810;9.120;2023-03-13T15:01:39;4.17;;;2.60;;
209;SDS011;90;48.810;9.120;2023-03-13T15:04:08;3.37;;;2.77;;
209;SDS011;90;48.810;9.120;2023-03-13T15:06:34;5.90;;;3.00;;
209;SDS011;90;48.810;9.120;2023-03-13T15:09:15;3.30;;;3.10;;
209;SDS011;90;48.810;9.120;2023-03-13T15:11:52;3.10;;;2.90;;
209;SDS011;90;48.810;9.120;2023-03-13T15:14:36;2.87;;;2.77;;
209;SDS011;90;48.810;9.120;2023-03-13T15:17:09;3.10;;;2.90;;
209;SDS011;90;48.810;9.120;2023-03-13T15:19:42;3.10;;;2.90;;
209;SDS011;90;48.810;9.120;2023-03-13T15:22:14;2.97;;;2.77;;
209;SDS011;90;48.810;9.120;2023-03-13T15:24:46;3.07;;;2.87;;
209;SDS011;90;48.810;9.120;2023-03-13T15:27:14;3.33;;;2.90;;
209;SDS011;90;48.810;9.120;2023-03-13T15:29:42;3.17;;;2.97;;
209;SDS011;90;48.810;9.120;2023-03-13T15:32:11;3.70;;;2.77;;
209;SDS011;90;48.810;9.120;2023-03-13T15:34:44;3.30;;;3.10;;
209;SDS011;90;48.810;9.120;2023-03-13T15:37:11;3.80;;;2.90;;
209;SDS011;90;48.810;9.120;2023-03-13T15:39:40;4.13;;;3.33;;
209;SDS011;90;48.810;9.120;2023-03-13T15:42:07;3.67;;;2.97;;
209;SDS011;90;48.810;9.120;2023-03-13T15:44:34;3.20;;;3.00;;
209;SDS011;90;48.810;9.120;2023-03-13T15:47:00;3.07;;;2.87;;
209;SDS011;90;48.810;9.120;2023-03-13T15:49:27;4.70;;;3.20;;
209;SDS011;90;48.810;9.120;2023-03-13T15:51:56;4.57;;;3.00;;
209;SDS011;90;48.810;9.120;2023-03-13T15:54:22;3.30;;;2.47;;
209;SDS011;90;48.810;9.120;2023-03-13T15:56:50;4.00;;;3.00;;
209;SDS011;90;48.810;9.120;2023-03-13T15:59:17;3.50;;;3.30;;
209;SDS011;90;48.810;9.120;2023-03-13T16:01:44;3.80;;;3.47;;
209;SDS011;90;48.810;9.120;2023-03-13T16:04:12;3.27;;;3.13;;
209;SDS011;90;48.810;9.120;2023-03-13T16:06:39;4.30;;;3.00;;
209;SDS011;90;48.810;9.120;2023-03-13T16:09:07;4.37;;;2.57;;
209;SDS011;90;48.810;9.120;2023-03-13T16:11:36;3.67;;;3.47;;
209;SDS011;90;48.810;9.120;2023-03-13T16:14:02;5.03;;;3.47;;
209;SDS011;90;48.810;9.120;2023-03-13T16:16:30;3.30;;;3.10;;
209;SDS011;90;48.810;9.120;2023-03-13T16:18:58;3.17;;;2.97;;
209;SDS011;90;48.810;9.120;2023-03-13T16:21:28;3.23;;;2.80;;
209;SDS011;90;48.810;9.120;2023-03-13T16:23:56;6.27;;;2.97;;
209;SDS011;90;48.810;9.120;2023-03-13T16:26:25;3.10;;;2.70;;
209;SDS011;90;48.810;9.120;2023-03-13T16:28:54;4.83;;;2.80;;
209;SDS011;90;48.810;9.120;2023-03-13T16:31:22;3.10;;;2.87;;
209;SDS011;90;48.810;9.120;2023-03-13T16:33:51;3.50;;;2.93;;
209;SDS011;90;48.810;9.120;2023-03-13T16:36:19;3.30;;;3.13;;
209;SDS011;90;48.810;9.120;2023-03-13T16:38:52;4.20;;;2.73;;
209;SDS011;90;48.810;9.120;2023-03-13T16:41:20;3.40;;;2.60;;
209;SDS011;90;48.810;9.120;2023-03-13T16:43:49;4.00;;;2.90;;